Wolgastern — CQLH — position and weather

sailwx.info

Track history (hours):
 
Tides and Currents Weather Stations Pressure Air Temp Water Temp Dewpoint Dewpoint Depression Visibility Wind Speed Wind Dir Waves Ship Positions

Wolgastern

Last reported at 2016-Jun-28 03:10 UTC. Time now 2016-Jul-02 07:36 UTC.
Position N 36°44' W 075°38'.

Length 162 m; draft 7.3 m.

Type: Ship (hazmat cat B). MMSI: 255804950.

Date/timePositionNaut miles runAvg speedWind from/ knotsBaromVisibWave heightAir tempDewpointWater temp
2016-Jun-28 03:10N 36°44' W 075°38'711.1
2016-Jun-28 02:33N 36°48' W 075°45'1211.4
2016-Jun-28 01:33N 36°55' W 075°56'1211.7
2016-Jun-28 00:33N 36°59' W 076°10'9 9.0
2016-Jun-27 23:31N 36°55' W 076°20'6 6.6
2016-Jun-27 22:33N 36°49' W 076°17'1 1.2
2016-Jun-27 21:32N 36°48' W 076°17'0 0.0
2016-Jun-27 20:31N 36°48' W 076°17'0 0.0
2016-Jun-27 19:31N 36°48' W 076°17'0 0.0
2016-Jun-27 18:33N 36°48' W 076°17'0 0.0
2016-Jun-27 17:33N 36°48' W 076°17'0 0.1
2016-Jun-27 16:32N 36°48' W 076°17'0 0.0
2016-Jun-27 15:32N 36°48' W 076°17'0 0.0
2016-Jun-27 14:32N 36°48' W 076°17'0 0.0
2016-Jun-27 13:31N 36°48' W 076°17'0 0.0
2016-Jun-27 12:31N 36°48' W 076°17'0 0.0
2016-Jun-27 11:33N 36°48' W 076°17'0 0.0
2016-Jun-27 10:33N 36°48' W 076°17'0 0.0
2016-Jun-27 09:32N 36°48' W 076°17'0 0.0
2016-Jun-27 08:32N 36°48' W 076°17'0 0.0
2016-Jun-27 07:32N 36°48' W 076°17'0 0.0
2016-Jun-27 06:31N 36°48' W 076°17'0 0.0
2016-Jun-27 05:31N 36°48' W 076°17'0 0.0
2016-Jun-27 04:33N 36°48' W 076°17'0 0.0
2016-Jun-27 03:33N 36°48' W 076°17'0 0.0
2016-Jun-27 02:32N 36°48' W 076°17'0 0.1
2016-Jun-27 01:32N 36°48' W 076°17'0 0.0
2016-Jun-27 00:32N 36°48' W 076°17'0 0.0
2016-Jun-26 23:31N 36°48' W 076°17'0 0.0
2016-Jun-26 22:31N 36°48' W 076°17'0 0.0
2016-Jun-26 21:33N 36°48' W 076°17'0 0.0
2016-Jun-26 20:33N 36°48' W 076°17'0 0.0
2016-Jun-26 19:32N 36°48' W 076°17'0 0.0
2016-Jun-26 18:32N 36°48' W 076°17'0 0.0
2016-Jun-26 17:32N 36°48' W 076°17'0 0.1
2016-Jun-26 16:31N 36°48' W 076°17'0 0.0
2016-Jun-26 15:31N 36°48' W 076°17'0 0.0
2016-Jun-26 14:33N 36°48' W 076°17'0 0.0
2016-Jun-26 13:33N 36°48' W 076°17'0 0.0
2016-Jun-26 12:32N 36°48' W 076°17'0 0.0
2016-Jun-26 11:32N 36°48' W 076°17'0 0.0
2016-Jun-26 10:32N 36°48' W 076°17'0 0.0
2016-Jun-26 09:31N 36°48' W 076°17'0 0.0
2016-Jun-26 08:31N 36°48' W 076°17'0 0.0
2016-Jun-26 07:33N 36°48' W 076°17'0 0.0
2016-Jun-26 06:30N 36°48' W 076°17'0 0.0
2016-Jun-26 05:32N 36°48' W 076°17'0 0.0
2016-Jun-26 04:32N 36°48' W 076°17'0 0.0
2016-Jun-26 03:31N 36°48' W 076°17'0 0.0
2016-Jun-26 02:31N 36°48' W 076°17'0 0.0
2016-Jun-26 01:31N 36°48' W 076°17'0 0.1
2016-Jun-26 00:33N 36°48' W 076°17'0 0.0
2016-Jun-25 23:33N 36°48' W 076°17'0 0.0
2016-Jun-25 22:32N 36°48' W 076°17'0 0.1
2016-Jun-25 21:32N 36°48' W 076°17'0 0.0
2016-Jun-25 20:31N 36°48' W 076°17'0 0.0
2016-Jun-25 19:31N 36°48' W 076°17'0 0.0
2016-Jun-25 18:33N 36°48' W 076°17'4 3.9
2016-Jun-25 17:33N 36°52' W 076°19'6 0.9
2016-Jun-25 10:17N 36°58' W 076°22'13 0.7
2016-Jun-24 15:33N 36°58' W 076°05'1110.9
2016-Jun-24 14:33N 36°57' W 075°52'231 5.2
2016-Jun-22 18:16N 40°32' W 074°01'6 8.5
2016-Jun-22 17:31N 40°38' W 074°04'0 0.0
2016-Jun-22 16:30N 40°38' W 074°04'0 0.1
2016-Jun-22 15:27N 40°38' W 074°04'0 0.0
2016-Jun-22 14:32N 40°38' W 074°04'2 1.9
2016-Jun-22 13:32N 40°39' W 074°05'0 0.0
2016-Jun-22 12:31N 40°39' W 074°05'0 0.0
2016-Jun-22 11:31N 40°39' W 074°05'0 0.0
2016-Jun-22 10:15N 40°39' W 074°05'0 0.0
2016-Jun-22 09:33N 40°39' W 074°05'0 0.0
2016-Jun-22 08:27N 40°39' W 074°05'0 0.0
2016-Jun-22 07:32N 40°39' W 074°05'0 0.0
2016-Jun-22 06:26N 40°39' W 074°05'0 0.0
2016-Jun-22 05:25N 40°39' W 074°05'0 0.0
2016-Jun-22 04:19N 40°39' W 074°05'0 0.0
2016-Jun-22 03:34N 40°39' W 074°05'0 0.3
2016-Jun-22 02:33N 40°39' W 074°05'0 0.0
2016-Jun-22 01:33N 40°39' W 074°05'0 0.0
2016-Jun-22 00:32N 40°39' W 074°05'0 0.0
2016-Jun-21 23:29N 40°39' W 074°05'0 0.0
2016-Jun-21 22:13N 40°39' W 074°05'0 0.0
2016-Jun-21 21:31N 40°39' W 074°05'0 0.0
2016-Jun-21 20:33N 40°39' W 074°05'0 0.0
2016-Jun-21 19:30N 40°39' W 074°05'0 0.3
2016-Jun-21 18:33N 40°39' W 074°05'0 0.0
2016-Jun-20 13:20N 40°39' W 074°05'0 0.0
2016-Jun-20 12:33N 40°39' W 074°05'5 4.6
2016-Jun-20 11:34N 40°35' W 074°02'8 8.0
2016-Jun-20 10:34N 40°29' W 073°55'24 9.9
2016-Jun-20 08:10N 40°16' W 073°29'711.8
2016-Jun-20 07:34N 40°12' W 073°21'1111.3
2016-Jun-20 06:34N 40°04' W 073°12'1211.5
2016-Jun-20 05:34N 39°54' W 073°03'1111.3
2016-Jun-20 04:33N 39°43' W 073°06'1110.9
2016-Jun-20 03:33N 39°33' W 073°09'8 8.4
2016-Jun-20 02:33N 39°24' W 073°11'0 0.3
2016-Jun-20 01:34N 39°25' W 073°11'0 0.2
2016-Jun-20 00:33N 39°25' W 073°11'0 0.1
2016-Jun-19 23:27N 39°25' W 073°12'143 9.5
2016-Jun-19 08:24N 37°05' W 073°52'12 9.9
2016-Jun-19 07:10N 36°53' W 073°56'  
Track history (hours):
 
Tides and Currents Weather Stations Pressure Air Temp Water Temp Dewpoint Dewpoint Depression Visibility Wind Speed Wind Dir Waves Ship Positions

Wolgastern

Last reported at 2016-Jun-28 03:10 UTC. Time now 2016-Jul-02 07:36 UTC.
Position N 36°44' W 075°38'.

Length 162 m; draft 7.3 m.

Type: Ship (hazmat cat B). MMSI: 255804950.

Date/timePositionNaut miles runAvg speedWind from/ knotsBaromVisibWave heightAir tempDewpointWater temp
2016-Jun-28 03:10N 36°44' W 075°38'711.1
2016-Jun-28 02:33N 36°48' W 075°45'1211.4
2016-Jun-28 01:33N 36°55' W 075°56'1211.7
2016-Jun-28 00:33N 36°59' W 076°10'9 9.0
2016-Jun-27 23:31N 36°55' W 076°20'6 6.6
2016-Jun-27 22:33N 36°49' W 076°17'1 1.2
2016-Jun-27 21:32N 36°48' W 076°17'0 0.0
2016-Jun-27 20:31N 36°48' W 076°17'0 0.0
2016-Jun-27 19:31N 36°48' W 076°17'0 0.0
2016-Jun-27 18:33N 36°48' W 076°17'0 0.0
2016-Jun-27 17:33N 36°48' W 076°17'0 0.1
2016-Jun-27 16:32N 36°48' W 076°17'0 0.0
2016-Jun-27 15:32N 36°48' W 076°17'0 0.0
2016-Jun-27 14:32N 36°48' W 076°17'0 0.0
2016-Jun-27 13:31N 36°48' W 076°17'0 0.0
2016-Jun-27 12:31N 36°48' W 076°17'0 0.0
2016-Jun-27 11:33N 36°48' W 076°17'0 0.0
2016-Jun-27 10:33N 36°48' W 076°17'0 0.0
2016-Jun-27 09:32N 36°48' W 076°17'0 0.0
2016-Jun-27 08:32N 36°48' W 076°17'0 0.0
2016-Jun-27 07:32N 36°48' W 076°17'0 0.0
2016-Jun-27 06:31N 36°48' W 076°17'0 0.0
2016-Jun-27 05:31N 36°48' W 076°17'0 0.0
2016-Jun-27 04:33N 36°48' W 076°17'0 0.0
2016-Jun-27 03:33N 36°48' W 076°17'0 0.0
2016-Jun-27 02:32N 36°48' W 076°17'0 0.1
2016-Jun-27 01:32N 36°48' W 076°17'0 0.0
2016-Jun-27 00:32N 36°48' W 076°17'0 0.0
2016-Jun-26 23:31N 36°48' W 076°17'0 0.0
2016-Jun-26 22:31N 36°48' W 076°17'0 0.0
2016-Jun-26 21:33N 36°48' W 076°17'0 0.0
2016-Jun-26 20:33N 36°48' W 076°17'0 0.0
2016-Jun-26 19:32N 36°48' W 076°17'0 0.0
2016-Jun-26 18:32N 36°48' W 076°17'0 0.0
2016-Jun-26 17:32N 36°48' W 076°17'0 0.1
2016-Jun-26 16:31N 36°48' W 076°17'0 0.0
2016-Jun-26 15:31N 36°48' W 076°17'0 0.0
2016-Jun-26 14:33N 36°48' W 076°17'0 0.0
2016-Jun-26 13:33N 36°48' W 076°17'0 0.0
2016-Jun-26 12:32N 36°48' W 076°17'0 0.0
2016-Jun-26 11:32N 36°48' W 076°17'0 0.0
2016-Jun-26 10:32N 36°48' W 076°17'0 0.0
2016-Jun-26 09:31N 36°48' W 076°17'0 0.0
2016-Jun-26 08:31N 36°48' W 076°17'0 0.0
2016-Jun-26 07:33N 36°48' W 076°17'0 0.0
2016-Jun-26 06:30N 36°48' W 076°17'0 0.0
2016-Jun-26 05:32N 36°48' W 076°17'0 0.0
2016-Jun-26 04:32N 36°48' W 076°17'0 0.0
2016-Jun-26 03:31N 36°48' W 076°17'0 0.0
2016-Jun-26 02:31N 36°48' W 076°17'0 0.0
2016-Jun-26 01:31N 36°48' W 076°17'0 0.1
2016-Jun-26 00:33N 36°48' W 076°17'0 0.0
2016-Jun-25 23:33N 36°48' W 076°17'0 0.0
2016-Jun-25 22:32N 36°48' W 076°17'0 0.1
2016-Jun-25 21:32N 36°48' W 076°17'0 0.0
2016-Jun-25 20:31N 36°48' W 076°17'0 0.0
2016-Jun-25 19:31N 36°48' W 076°17'0 0.0
2016-Jun-25 18:33N 36°48' W 076°17'4 3.9
2016-Jun-25 17:33N 36°52' W 076°19'6 0.9
2016-Jun-25 10:17N 36°58' W 076°22'13 0.7
2016-Jun-24 15:33N 36°58' W 076°05'1110.9
2016-Jun-24 14:33N 36°57' W 075°52'231 5.2
2016-Jun-22 18:16N 40°32' W 074°01'6 8.5
2016-Jun-22 17:31N 40°38' W 074°04'0 0.0
2016-Jun-22 16:30N 40°38' W 074°04'0 0.1
2016-Jun-22 15:27N 40°38' W 074°04'0 0.0
2016-Jun-22 14:32N 40°38' W 074°04'2 1.9
2016-Jun-22 13:32N 40°39' W 074°05'0 0.0
2016-Jun-22 12:31N 40°39' W 074°05'0 0.0
2016-Jun-22 11:31N 40°39' W 074°05'0 0.0
2016-Jun-22 10:15N 40°39' W 074°05'0 0.0
2016-Jun-22 09:33N 40°39' W 074°05'0 0.0
2016-Jun-22 08:27N 40°39' W 074°05'0 0.0
2016-Jun-22 07:32N 40°39' W 074°05'0 0.0
2016-Jun-22 06:26N 40°39' W 074°05'0 0.0
2016-Jun-22 05:25N 40°39' W 074°05'0 0.0
2016-Jun-22 04:19N 40°39' W 074°05'0 0.0
2016-Jun-22 03:34N 40°39' W 074°05'0 0.3
2016-Jun-22 02:33N 40°39' W 074°05'0 0.0
2016-Jun-22 01:33N 40°39' W 074°05'0 0.0
2016-Jun-22 00:32N 40°39' W 074°05'0 0.0
2016-Jun-21 23:29N 40°39' W 074°05'0 0.0
2016-Jun-21 22:13N 40°39' W 074°05'0 0.0
2016-Jun-21 21:31N 40°39' W 074°05'0 0.0
2016-Jun-21 20:33N 40°39' W 074°05'0 0.0
2016-Jun-21 19:30N 40°39' W 074°05'0 0.3
2016-Jun-21 18:33N 40°39' W 074°05'0 0.0
2016-Jun-20 13:20N 40°39' W 074°05'0 0.0
2016-Jun-20 12:33N 40°39' W 074°05'5 4.6
2016-Jun-20 11:34N 40°35' W 074°02'8 8.0
2016-Jun-20 10:34N 40°29' W 073°55'24 9.9
2016-Jun-20 08:10N 40°16' W 073°29'711.8
2016-Jun-20 07:34N 40°12' W 073°21'1111.3
2016-Jun-20 06:34N 40°04' W 073°12'1211.5
2016-Jun-20 05:34N 39°54' W 073°03'1111.3
2016-Jun-20 04:33N 39°43' W 073°06'1110.9
2016-Jun-20 03:33N 39°33' W 073°09'8 8.4
2016-Jun-20 02:33N 39°24' W 073°11'0 0.3
2016-Jun-20 01:34N 39°25' W 073°11'0 0.2
2016-Jun-20 00:33N 39°25' W 073°11'0 0.1
2016-Jun-19 23:27N 39°25' W 073°12'143 9.5
2016-Jun-19 08:24N 37°05' W 073°52'12 9.9
2016-Jun-19 07:10N 36°53' W 073°56'  

Dump ship's entire track history